createdAt,value
2018-07-20T00:00:22.843Z,4.37
2018-07-20T00:02:59.399Z,4.30
2018-07-20T00:05:29.805Z,4.27
2018-07-20T00:08:00.926Z,4.37
2018-07-20T00:10:31.317Z,4.13
2018-07-20T00:13:01.706Z,3.97
2018-07-20T00:15:32.779Z,4.50
2018-07-20T00:18:03.575Z,4.33
2018-07-20T00:20:34.520Z,4.20
2018-07-20T00:23:04.902Z,4.67
2018-07-20T00:25:35.309Z,4.50
2018-07-20T00:28:05.690Z,4.57
2018-07-20T00:30:36.067Z,4.00
2018-07-20T00:33:07.231Z,4.30
2018-07-20T00:35:37.631Z,4.60
2018-07-20T00:38:30.115Z,4.30
2018-07-20T00:41:01.414Z,4.67
2018-07-20T00:43:31.796Z,4.37
2018-07-20T00:46:02.971Z,4.20
2018-07-20T00:48:33.357Z,4.77
2018-07-20T00:51:03.733Z,4.20
2018-07-20T00:53:37.931Z,4.00
2018-07-20T00:56:09.056Z,4.70
2018-07-20T00:58:40.280Z,4.10
2018-07-20T01:01:12.748Z,4.30
2018-07-20T01:03:43.124Z,3.83
2018-07-20T01:06:14.379Z,4.03
2018-07-20T01:08:44.798Z,4.63
2018-07-20T01:11:15.193Z,4.50
2018-07-20T01:13:46.286Z,3.90
2018-07-20T01:16:16.701Z,4.23
2018-07-20T01:18:47.229Z,4.33
2018-07-20T01:21:17.630Z,4.00
2018-07-20T01:23:47.968Z,4.10
2018-07-20T01:26:19.268Z,4.40
2018-07-20T01:28:49.649Z,4.77
2018-07-20T01:31:20.260Z,4.10
2018-07-20T01:33:51.339Z,4.07
2018-07-20T01:36:21.972Z,4.30
2018-07-20T01:38:56.323Z,4.03
2018-07-20T01:41:26.708Z,3.97
2018-07-20T01:43:57.105Z,4.10
2018-07-20T01:46:28.225Z,3.60
2018-07-20T01:48:58.619Z,4.20
2018-07-20T01:51:36.295Z,4.00
2018-07-20T01:54:06.695Z,4.13
2018-07-20T01:56:37.065Z,4.47
2018-07-20T01:59:08.520Z,3.80
2018-07-20T02:01:45.099Z,4.23
2018-07-20T02:04:34.615Z,3.80
2018-07-20T02:07:07.636Z,4.33
2018-07-20T02:09:38.041Z,4.43
2018-07-20T02:12:09.225Z,3.80
2018-07-20T02:14:39.625Z,3.90
2018-07-20T02:17:10.009Z,4.10
2018-07-20T02:19:40.600Z,4.30
2018-07-20T02:22:11.622Z,3.83
2018-07-20T02:24:43.060Z,3.57
2018-07-20T02:27:16.501Z,3.87
2018-07-20T02:29:50.982Z,3.80
2018-07-20T02:32:22.126Z,4.47
2018-07-20T02:34:53.321Z,3.43
2018-07-20T02:37:23.707Z,3.77
2018-07-20T02:39:54.106Z,4.00
2018-07-20T02:42:24.521Z,4.27
2018-07-20T02:44:54.906Z,4.00
2018-07-20T02:47:25.228Z,4.10
2018-07-20T02:52:40.174Z,3.83
2018-07-20T02:55:10.592Z,3.77
2018-07-20T02:57:40.917Z,4.37
2018-07-20T03:00:12.321Z,4.23
2018-07-20T03:02:44.072Z,4.00
2018-07-20T03:05:16.843Z,4.10
2018-07-20T03:07:47.218Z,4.33
2018-07-20T03:10:17.618Z,4.10
2018-07-20T03:12:48.103Z,4.30
2018-07-20T03:15:18.423Z,4.50
2018-07-20T03:17:52.490Z,4.60
2018-07-20T03:20:22.862Z,4.20
2018-07-20T03:22:53.261Z,4.37
2018-07-20T03:25:44.838Z,4.47
2018-07-20T03:28:15.997Z,5.03
2018-07-20T03:30:46.388Z,4.53
2018-07-20T03:33:16.755Z,4.60
2018-07-20T03:35:47.142Z,4.03
2018-07-20T03:38:18.813Z,4.23
2018-07-20T03:40:50.004Z,4.43
2018-07-20T03:43:20.402Z,4.10
2018-07-20T03:45:50.784Z,4.47
2018-07-20T03:48:21.205Z,3.93
2018-07-20T03:50:54.179Z,4.37
2018-07-20T03:53:24.559Z,4.70
2018-07-20T03:55:54.986Z,4.50
2018-07-20T03:58:25.497Z,4.43
2018-07-20T04:00:55.888Z,4.63
2018-07-20T04:03:27.704Z,5.20
2018-07-20T04:05:58.790Z,4.70
2018-07-20T04:08:31.226Z,4.77
2018-07-20T04:11:01.648Z,4.77
2018-07-20T04:13:32.026Z,4.80
2018-07-20T04:16:02.335Z,4.53
2018-07-20T04:18:33.617Z,5.00
2018-07-20T04:21:03.985Z,4.73
2018-07-20T04:23:34.722Z,5.00
2018-07-20T04:26:05.136Z,5.00
2018-07-20T04:28:36.836Z,4.77
2018-07-20T04:31:07.151Z,5.43
2018-07-20T04:33:42.780Z,5.33
2018-07-20T04:36:13.142Z,5.43
2018-07-20T04:38:44.090Z,4.93
2018-07-20T04:41:16.655Z,5.20
2018-07-20T04:43:47.684Z,4.97
2018-07-20T04:46:18.088Z,5.40
2018-07-20T04:48:48.503Z,5.10
2018-07-20T04:51:20.342Z,4.90
2018-07-20T04:53:50.668Z,5.17
2018-07-20T04:56:21.077Z,4.80
2018-07-20T04:58:51.495Z,4.83
2018-07-20T05:01:23.019Z,4.73
2018-07-20T05:03:53.433Z,5.20
2018-07-20T05:06:23.822Z,4.40
2018-07-20T05:08:58.707Z,5.20
2018-07-20T05:11:29.202Z,4.50
2018-07-20T05:13:59.516Z,5.20
2018-07-20T05:16:30.653Z,4.47
2018-07-20T05:19:01.111Z,4.67
2018-07-20T05:21:33.849Z,4.30
2018-07-20T05:24:04.229Z,4.33
2018-07-20T05:26:36.798Z,4.10
2018-07-20T05:29:07.931Z,4.30
2018-07-20T05:31:39.659Z,4.37
2018-07-20T05:34:11.830Z,3.97
2018-07-20T05:36:42.218Z,4.30
2018-07-20T05:39:12.607Z,4.10
2018-07-20T05:41:43.809Z,4.13
2018-07-20T05:44:16.229Z,4.37
2018-07-20T05:46:47.389Z,4.10
2018-07-20T05:49:17.811Z,3.40
2018-07-20T05:51:49.166Z,4.37
2018-07-20T05:54:19.561Z,4.57
2018-07-20T05:56:49.970Z,3.97
2018-07-20T05:59:20.366Z,3.83
2018-07-20T06:01:50.758Z,4.20
2018-07-20T06:04:21.765Z,3.60
2018-07-20T06:06:52.186Z,3.70
2018-07-20T06:09:30.840Z,3.40
2018-07-20T06:12:01.984Z,3.37
2018-07-20T06:14:33.144Z,3.90
2018-07-20T06:17:03.549Z,3.73
2018-07-20T06:19:33.944Z,3.40
2018-07-20T06:22:08.431Z,3.73
2018-07-20T06:24:39.876Z,4.00
2018-07-20T06:27:13.973Z,3.90
2018-07-20T06:29:45.098Z,3.73
2018-07-20T06:32:15.472Z,3.63
2018-07-20T06:34:45.884Z,3.60
2018-07-20T06:37:17.000Z,3.50
2018-07-20T06:39:47.809Z,3.90
2018-07-20T06:42:19.224Z,4.00
2018-07-20T06:44:49.604Z,3.90
2018-07-20T06:47:20.014Z,3.97
2018-07-20T06:49:50.364Z,4.03
2018-07-20T06:52:20.658Z,3.33
2018-07-20T06:54:53.125Z,4.17
2018-07-20T07:00:26.520Z,4.03
2018-07-20T07:02:56.893Z,4.20
2018-07-20T07:05:27.275Z,3.70
2018-07-20T07:07:58.376Z,4.60
2018-07-20T07:10:31.497Z,4.00
2018-07-20T07:13:01.871Z,3.90
2018-07-20T07:15:32.552Z,3.97
2018-07-20T07:18:03.706Z,4.00
2018-07-20T07:20:34.100Z,4.13
2018-07-20T07:23:04.510Z,4.27
2018-07-20T07:25:34.895Z,4.37
2018-07-20T07:28:05.610Z,4.13
2018-07-20T07:30:36.771Z,4.03
2018-07-20T07:33:07.152Z,3.83
2018-07-20T07:35:37.848Z,4.30
2018-07-20T07:38:08.263Z,3.97
2018-07-20T07:40:38.645Z,4.30
2018-07-20T07:43:09.507Z,3.80
2018-07-20T07:45:40.674Z,3.80
2018-07-20T07:48:11.058Z,4.03
2018-07-20T07:50:42.204Z,4.40
2018-07-20T07:53:14.107Z,4.33
2018-07-20T07:55:44.480Z,4.47
2018-07-20T07:58:14.854Z,4.30
2018-07-20T08:00:45.248Z,4.00
2018-07-20T08:03:16.433Z,4.20
2018-07-20T08:05:47.582Z,4.17
2018-07-20T08:08:17.969Z,4.00
2018-07-20T08:10:49.111Z,4.30
2018-07-20T08:13:20.267Z,4.33
2018-07-20T08:15:50.770Z,4.50
2018-07-20T08:18:21.064Z,4.47
2018-07-20T08:21:11.665Z,4.50
2018-07-20T08:23:42.357Z,4.40
2018-07-20T08:26:12.741Z,4.27
2018-07-20T08:28:43.144Z,4.50
2018-07-20T08:31:13.535Z,4.07
2018-07-20T08:33:44.684Z,4.20
2018-07-20T08:36:15.096Z,4.37
2018-07-20T08:38:48.345Z,4.33
2018-07-20T08:41:20.813Z,4.20
2018-07-20T08:43:54.258Z,4.43
2018-07-20T08:46:26.870Z,4.40
2018-07-20T08:48:57.266Z,4.10
2018-07-20T08:51:27.906Z,4.40
2018-07-20T08:53:59.871Z,4.60
2018-07-20T08:56:34.861Z,4.30
2018-07-20T08:59:05.339Z,4.40
2018-07-20T09:01:35.673Z,4.47
2018-07-20T09:04:07.077Z,4.40
2018-07-20T09:06:39.572Z,4.53
2018-07-20T09:09:09.953Z,4.20
2018-07-20T09:11:40.336Z,4.30
2018-07-20T09:14:13.039Z,4.13
2018-07-20T09:16:48.245Z,4.23
2018-07-20T09:19:18.585Z,4.27
2018-07-20T09:21:49.949Z,4.23
2018-07-20T09:24:22.288Z,4.57
2018-07-20T09:26:52.703Z,4.57
2018-07-20T09:29:23.080Z,4.10
2018-07-20T09:31:53.396Z,4.60
2018-07-20T09:34:24.000Z,4.37
2018-07-20T09:36:58.459Z,4.23
2018-07-20T09:39:29.092Z,4.30
2018-07-20T09:41:59.536Z,4.77
2018-07-20T09:44:29.966Z,4.87
2018-07-20T09:47:03.603Z,4.27
2018-07-20T09:49:34.012Z,5.13
2018-07-20T09:52:22.702Z,4.70
2018-07-20T09:54:54.716Z,4.73
2018-07-20T09:57:34.966Z,4.90
2018-07-20T10:00:05.451Z,4.77
2018-07-20T10:02:37.706Z,4.67
2018-07-20T10:05:08.728Z,4.60
2018-07-20T10:07:58.246Z,4.27
2018-07-20T10:10:29.331Z,4.43
2018-07-20T10:13:00.688Z,4.57
2018-07-20T10:15:32.942Z,4.27
2018-07-20T10:18:03.328Z,4.50
2018-07-20T10:20:35.844Z,4.30
2018-07-20T10:23:06.212Z,5.13
2018-07-20T10:25:36.664Z,4.83
2018-07-20T10:28:12.281Z,4.60
2018-07-20T10:31:03.071Z,4.60
2018-07-20T10:33:34.268Z,4.80
2018-07-20T10:36:07.469Z,4.50
2018-07-20T10:38:38.579Z,4.57
2018-07-20T10:41:09.594Z,4.50
2018-07-20T10:43:39.986Z,4.63
2018-07-20T10:46:12.071Z,4.60
2018-07-20T10:48:43.289Z,4.30
2018-07-20T10:51:13.760Z,4.50
2018-07-20T10:53:49.790Z,4.57
2018-07-20T10:56:21.975Z,4.63
2018-07-20T10:58:52.368Z,4.40
2018-07-20T11:01:25.528Z,4.70
2018-07-20T11:03:57.097Z,4.40
2018-07-20T11:06:27.479Z,4.40
2018-07-20T11:08:59.579Z,4.30
2018-07-20T11:11:30.151Z,4.30
2018-07-20T11:14:01.309Z,4.00
2018-07-20T11:29:48.156Z,4.13
2018-07-20T11:32:22.873Z,4.20
2018-07-20T11:34:56.395Z,4.27
2018-07-20T11:37:27.042Z,4.20
2018-07-20T11:39:58.486Z,4.30
2018-07-20T11:42:28.897Z,4.07
2018-07-20T11:44:59.482Z,4.27
2018-07-20T11:47:30.621Z,4.40
2018-07-20T11:50:01.085Z,4.07
2018-07-20T11:52:31.617Z,4.30
2018-07-20T11:55:02.011Z,4.60
2018-07-20T11:57:33.180Z,4.27
2018-07-20T12:00:03.557Z,3.97
2018-07-20T12:02:33.933Z,3.83
2018-07-20T12:05:04.625Z,3.97
2018-07-20T12:07:35.280Z,4.27
2018-07-20T12:10:06.607Z,4.00
2018-07-20T12:12:37.380Z,3.90
2018-07-20T12:15:09.889Z,4.40
2018-07-20T12:17:47.460Z,3.87
2018-07-20T12:20:17.934Z,4.20
2018-07-20T12:22:48.326Z,3.73
2018-07-20T12:28:01.018Z,3.93
2018-07-20T12:30:32.160Z,4.17
2018-07-20T12:33:03.310Z,4.33
2018-07-20T12:35:39.943Z,3.90
2018-07-20T12:38:13.232Z,4.03
2018-07-20T12:41:03.133Z,4.40
2018-07-20T12:43:33.513Z,4.23
2018-07-20T12:46:03.904Z,3.70
2018-07-20T12:48:36.320Z,4.30
2018-07-20T12:51:11.321Z,3.93
2018-07-20T12:53:42.170Z,3.93
2018-07-20T12:56:13.247Z,3.83
2018-07-20T12:58:52.882Z,3.70
2018-07-20T13:01:23.420Z,3.73
2018-07-20T13:03:59.836Z,3.90
2018-07-20T13:06:35.164Z,3.90
2018-07-20T13:09:05.554Z,4.07
2018-07-20T13:11:37.986Z,3.67
2018-07-20T13:14:09.962Z,4.10
2018-07-20T13:16:40.308Z,3.80
2018-07-20T13:19:11.701Z,4.30
2018-07-20T13:21:42.113Z,3.90
2018-07-20T13:24:20.357Z,3.70
2018-07-20T13:26:51.575Z,3.67
2018-07-20T13:29:21.972Z,4.40
2018-07-20T13:31:59.201Z,4.03
2018-07-20T13:34:32.414Z,4.03
2018-07-20T13:37:03.565Z,3.70
2018-07-20T13:39:38.305Z,4.10
2018-07-20T13:42:09.259Z,3.80
2018-07-20T13:44:39.653Z,3.97
2018-07-20T13:47:11.674Z,3.60
2018-07-20T13:49:44.240Z,4.10
2018-07-20T13:52:21.929Z,3.97
2018-07-20T13:54:56.001Z,4.07
2018-07-20T13:57:26.537Z,4.27
2018-07-20T13:59:57.777Z,3.80
2018-07-20T14:02:28.941Z,4.23
2018-07-20T14:04:59.334Z,4.20
2018-07-20T14:07:29.718Z,3.90
2018-07-20T14:10:03.036Z,4.10
2018-07-20T14:12:36.499Z,4.00
2018-07-20T14:15:07.670Z,4.53
2018-07-20T14:17:48.152Z,4.17
2018-07-20T14:20:21.374Z,4.30
2018-07-20T14:22:51.709Z,3.80
2018-07-20T14:25:22.856Z,3.87
2018-07-20T14:27:54.054Z,4.17
2018-07-20T14:30:26.514Z,4.50
2018-07-20T14:32:58.573Z,3.47
2018-07-20T14:35:28.993Z,4.27
2018-07-20T14:37:59.330Z,4.47
2018-07-20T14:40:30.681Z,4.50
2018-07-20T14:43:02.087Z,3.97
2018-07-20T14:45:32.464Z,4.10
2018-07-20T14:48:09.244Z,4.13
2018-07-20T14:50:39.495Z,4.27
2018-07-20T14:53:12.095Z,3.90
2018-07-20T14:55:42.484Z,4.13
2018-07-20T14:58:12.820Z,4.50
2018-07-20T15:00:44.969Z,4.70
2018-07-20T15:03:17.367Z,4.50
2018-07-20T15:05:47.687Z,4.13
2018-07-20T15:08:18.065Z,4.83
2018-07-20T15:10:48.946Z,4.40
2018-07-20T15:13:20.443Z,4.50
2018-07-20T15:15:50.866Z,4.17
2018-07-20T15:18:21.272Z,4.33
2018-07-20T15:20:51.656Z,4.67
2018-07-20T15:23:29.498Z,4.33
2018-07-20T15:25:59.868Z,5.50
2018-07-20T15:28:32.292Z,4.77
2018-07-20T15:31:02.648Z,5.23
2018-07-20T15:33:33.810Z,4.93
2018-07-20T15:36:05.293Z,5.17
2018-07-20T15:38:39.297Z,4.83
2018-07-20T15:41:10.719Z,5.60
2018-07-20T15:43:41.803Z,5.67
2018-07-20T15:46:12.180Z,5.60
2018-07-20T15:48:42.624Z,5.80
2018-07-20T15:51:14.177Z,5.80
2018-07-20T15:53:45.100Z,5.73
2018-07-20T15:56:34.552Z,5.57
2018-07-20T15:59:04.958Z,5.40
2018-07-20T16:01:35.565Z,6.00
2018-07-20T16:04:08.300Z,5.40
2018-07-20T16:06:39.476Z,5.70
2018-07-20T16:09:09.866Z,5.70
2018-07-20T16:11:41.526Z,6.23
2018-07-20T16:14:14.773Z,5.60
2018-07-20T16:17:03.070Z,5.60
2018-07-20T16:19:33.443Z,5.67
2018-07-20T16:22:04.305Z,5.43
2018-07-20T16:24:34.681Z,5.13
2018-07-20T16:27:05.145Z,5.63
2018-07-20T16:29:35.541Z,5.40
2018-07-20T16:32:05.938Z,5.77
2018-07-20T16:34:37.786Z,5.33
2018-07-20T16:39:53.649Z,5.00
2018-07-20T16:42:24.252Z,5.20
2018-07-20T16:44:54.631Z,4.80
2018-07-20T16:47:25.194Z,5.03
2018-07-20T16:49:56.199Z,4.83
2018-07-20T16:52:29.659Z,4.77
2018-07-20T16:55:00.069Z,4.30
2018-07-20T16:57:31.841Z,4.30
2018-07-20T17:00:02.171Z,4.40
2018-07-20T17:02:32.582Z,4.07
2018-07-20T17:05:06.291Z,4.07
2018-07-20T17:07:38.165Z,4.50
2018-07-20T17:10:08.583Z,3.60
2018-07-20T17:12:38.975Z,3.73
2018-07-20T17:15:09.404Z,3.93
2018-07-20T17:17:40.815Z,3.40
2018-07-20T17:20:11.209Z,4.00
2018-07-20T17:22:41.666Z,3.43
2018-07-20T17:25:12.041Z,3.77
2018-07-20T17:27:43.195Z,3.50
2018-07-20T17:30:14.652Z,3.40
2018-07-20T17:32:45.817Z,3.13
2018-07-20T17:35:16.788Z,3.30
2018-07-20T17:37:52.319Z,3.27
2018-07-20T17:40:27.071Z,3.40
2018-07-20T17:42:57.587Z,3.20
2018-07-20T17:45:34.121Z,3.47
2018-07-20T17:48:04.507Z,3.40
2018-07-20T17:50:34.890Z,3.13
2018-07-20T17:53:05.396Z,2.93
2018-07-20T17:55:36.555Z,2.50
2018-07-20T17:58:08.186Z,2.70
2018-07-20T18:00:40.821Z,3.13
2018-07-20T18:03:13.241Z,2.90
2018-07-20T18:05:44.428Z,2.53
2018-07-20T18:08:15.545Z,2.37
2018-07-20T18:10:49.524Z,2.03
2018-07-20T18:13:19.922Z,2.00
2018-07-20T18:15:50.405Z,1.70
2018-07-20T18:18:20.714Z,1.90
2018-07-20T18:20:52.475Z,2.17
2018-07-20T18:23:24.971Z,2.03
2018-07-20T18:25:55.344Z,1.73
2018-07-20T18:28:25.747Z,1.67
2018-07-20T18:30:59.217Z,1.90
2018-07-20T18:33:30.302Z,2.00
2018-07-20T18:36:00.727Z,1.80
2018-07-20T18:38:31.040Z,1.87
2018-07-20T18:41:01.417Z,2.03
2018-07-20T18:43:32.239Z,2.33
2018-07-20T18:46:02.515Z,2.20
2018-07-20T18:48:32.903Z,3.00
2018-07-20T18:51:03.326Z,2.83
2018-07-20T18:53:33.705Z,3.00
2018-07-20T18:56:04.140Z,2.13
2018-07-20T18:58:34.628Z,2.77
2018-07-20T19:01:05.780Z,2.70
2018-07-20T19:03:43.204Z,3.50
2018-07-20T19:06:17.697Z,2.83
2018-07-20T19:08:48.113Z,3.43
2018-07-20T19:11:19.261Z,2.83
2018-07-20T19:13:49.649Z,3.10
2018-07-20T19:16:20.397Z,3.50
2018-07-20T19:18:50.793Z,3.30
2018-07-20T19:21:27.352Z,3.53
2018-07-20T19:23:57.786Z,3.87
2018-07-20T19:26:28.126Z,3.60
2018-07-20T19:28:58.681Z,3.57
2018-07-20T19:31:31.650Z,3.70
2018-07-20T19:34:24.408Z,4.70
2018-07-20T19:36:54.570Z,3.87
2018-07-20T19:39:26.155Z,4.10
2018-07-20T19:41:56.573Z,4.70
2018-07-20T19:44:26.947Z,4.50
2018-07-20T19:46:57.329Z,4.60
2018-07-20T19:49:27.753Z,4.90
2018-07-20T19:51:58.138Z,4.20
2018-07-20T19:54:28.510Z,4.60
2018-07-20T19:56:59.381Z,4.20
2018-07-20T19:59:29.742Z,4.97
2018-07-20T20:02:00.904Z,4.87
2018-07-20T20:04:31.258Z,6.20
2018-07-20T20:07:01.661Z,5.50
2018-07-20T20:09:32.063Z,4.87
2018-07-20T20:12:04.087Z,4.80
2018-07-20T20:14:37.558Z,4.80
2018-07-20T20:17:07.939Z,4.10
2018-07-20T20:19:38.367Z,4.60
2018-07-20T20:22:08.751Z,4.90
2018-07-20T20:24:41.404Z,4.97
2018-07-20T20:27:14.296Z,5.78
2018-07-20T20:29:44.614Z,5.20
2018-07-20T20:32:15.002Z,4.50
2018-07-20T20:34:45.419Z,4.33
2018-07-20T20:37:35.177Z,4.63
2018-07-20T20:42:49.056Z,4.40
2018-07-20T20:45:19.405Z,4.83
2018-07-20T20:47:49.793Z,4.97
2018-07-20T20:50:26.359Z,4.43
2018-07-20T20:52:56.777Z,4.53
2018-07-20T20:55:27.150Z,4.90
2018-07-20T20:57:57.558Z,5.03
2018-07-20T21:00:29.990Z,5.07
2018-07-20T21:03:01.143Z,5.07
2018-07-20T21:05:31.554Z,5.17
2018-07-20T21:08:04.473Z,5.33
2018-07-20T21:10:35.562Z,5.37
2018-07-20T21:13:06.234Z,5.50
2018-07-20T21:15:36.632Z,5.30
2018-07-20T21:18:07.791Z,4.90
2018-07-20T21:20:38.801Z,5.17
2018-07-20T21:23:10.036Z,5.43
2018-07-20T21:25:41.281Z,4.73
2018-07-20T21:28:12.399Z,5.13
2018-07-20T21:30:47.905Z,5.47
2018-07-20T21:33:19.923Z,5.47
2018-07-20T21:35:52.300Z,4.97
2018-07-20T21:38:23.380Z,5.07
2018-07-20T21:40:54.910Z,5.30
2018-07-20T21:43:26.029Z,5.83
2018-07-20T21:46:03.760Z,5.30
2018-07-20T21:48:35.178Z,5.40
2018-07-20T21:51:06.316Z,5.63
2018-07-20T21:53:36.750Z,5.53
2018-07-20T21:56:07.127Z,5.77
2018-07-20T21:58:39.295Z,6.00
2018-07-20T22:01:11.258Z,6.13
2018-07-20T22:03:41.635Z,5.37
2018-07-20T22:06:12.329Z,5.97
2018-07-20T22:08:42.838Z,6.23
2018-07-20T22:11:14.132Z,7.17
2018-07-20T22:13:45.116Z,6.00
2018-07-20T22:16:15.775Z,6.87
2018-07-20T22:18:48.040Z,6.30
2018-07-20T22:21:18.507Z,6.43
2018-07-20T22:23:49.128Z,7.20
2018-07-20T22:26:20.644Z,7.23
2018-07-20T22:28:51.527Z,7.80
2018-07-20T22:31:23.984Z,7.73
2018-07-20T22:33:55.109Z,7.33
2018-07-20T22:36:26.743Z,7.40
2018-07-20T22:38:57.831Z,8.03
2018-07-20T22:41:29.061Z,7.47
2018-07-20T22:44:00.302Z,8.47
2018-07-20T22:46:30.809Z,8.83
2018-07-20T22:49:01.281Z,7.43
2018-07-20T22:51:32.184Z,8.03
2018-07-20T22:54:02.691Z,8.00
2018-07-20T22:56:35.961Z,9.00
2018-07-20T22:59:07.102Z,7.63
2018-07-20T23:01:39.660Z,8.50
2018-07-20T23:04:10.428Z,8.47
2018-07-20T23:06:41.670Z,8.73
2018-07-20T23:09:13.081Z,8.53
2018-07-20T23:11:43.556Z,8.70
2018-07-20T23:14:17.074Z,7.67
2018-07-20T23:16:47.459Z,8.03
2018-07-20T23:19:17.941Z,8.40
2018-07-20T23:21:48.410Z,9.30
2018-07-20T23:24:19.508Z,8.13
2018-07-20T23:26:50.041Z,9.20
2018-07-20T23:29:20.449Z,11.17
2018-07-20T23:31:50.971Z,11.40
2018-07-20T23:34:24.510Z,12.53
2018-07-20T23:36:55.673Z,11.20
2018-07-20T23:39:30.653Z,12.70
2018-07-20T23:42:01.765Z,12.73
2018-07-20T23:44:32.293Z,10.93
2018-07-20T23:47:03.618Z,12.10
2018-07-20T23:49:34.107Z,12.50
2018-07-20T23:52:11.856Z,14.17
2018-07-20T23:54:43.110Z,12.70
2018-07-20T23:57:14.355Z,13.27
2018-07-20T23:59:45.689Z,12.77
